Skip Navigation Links
NOAA logo - Click to go to the NOAA homepage
NOAA's National Weather Service
Alaska Aviation Weather Unit
  NWS logo - Click to go to the NWS homepage
Left Navbar Graphic     19 AKDT = 03 GMT

   
NOAA is celebrating 200 years of science, service, and stewardship. Visit the NOAA 200th celebration Web site to learn more.
USA.gov is the U.S. Government's official Web portal to all Federal, state and local government Web resources and services.
Facebook
NWS on Facebook

Important Change Regarding the AAWU Web Presence

 

Over the last several months, the AAWU has been working to navigate its webpages to a nationally supported server. Security, as well as other needs, have necessitated the change.  In the process, we have made an effort to enhance the functionality of our website, as well as some of our products. As of June 20, 2017, aawu.arh.noaa.gov will be discontinued. The new AAWU web address is weather.gov/aawu. It is now live and will run in-parallel with the old site until it is discontinued. Please send any feedback or questions regarding the new webpages to nws.ar.aawu.webauthors@noaa.gov.  Thank you for your patience during this time of transition.
AAWU Home :: Display TAF Add Bookmark
METAR PAMD 242116Z AUTO 17013KT 6SM FEW013 FEW018 OVC029 08/06 A3014
 RMK AO1=

METAR PAMD 242136Z AUTO 17012KT 6SM SCT004 BKN021 OVC028 08/06 A3013 RMK
     AO1=

METAR PAMD 242156Z AUTO 17012KT 6SM BKN004 OVC011 08/06 A3013 RMK
 AO1 P0001=

METAR PAMD 242216Z AUTO 17010KT 7SM OVC004 08/06 A3013 RMK AO1=

METAR PAMD 242236Z AUTO 16012KT 5SM OVC004 08/06 A3013 RMK AO1=

METAR PAMD 242256Z AUTO 17011KT 6SM OVC004 08/06 A3013 RMK AO1 P0001=

METAR PAMD 242316Z AUTO 19009KT 5SM OVC004 08/06 A3013 RMK AO1 P0001=

METAR PAMD 242336Z AUTO 19009KT 5SM OVC004 08/06 A3012 RMK AO1 P0002=

METAR PAMD 242356Z AUTO 20011KT 4SM OVC004 08/06 A3012 RMK AO1 P0003
     60011 10080 20080 400900070 57007=

METAR PAMD 250016Z AUTO 20008KT 4SM BKN004 OVC012 08/06 A3012 RMK AO1
     P0002=

METAR PAMD 250036Z AUTO 20011G14KT 3SM BKN004 OVC012 08/06 A3011 RMK
     AO1=

METAR PAMD 250056Z AUTO 20012G15KT 1 3/4SM OVC004 08/06 A3011 RMK
 AO1=

METAR PAMD 250116Z AUTO 19011KT 2SM OVC003 08/06 A3011 RMK AO1=

METAR PAMD 250136Z AUTO 20009KT 1 3/4SM OVC003 07/06 A3010 RMK AO1=

METAR PAMD 250156Z AUTO 19011G15KT 2 1/2SM OVC004 07/06 A3010 RMK
     AO1=

METAR PAMD 250216Z AUTO 20012G15KT 3SM OVC005 07/06 A3009 RMK AO1=

METAR PAMD 250236Z AUTO 20011G16KT 4SM BKN005 OVC012 07/06 A3009 RMK
     AO1=

METAR PAMD 250256Z AUTO 19011KT 4SM OVC006 07/06 A3009 RMK AO1=


NOAA's National Weather Service
Alaska Aviation Weather Unit
6930 Sand Lake Road
Anchorage, AK 99502-1845
Disclaimer
Credits
Glossary
Privacy Policy
About Us
Career Opportunities
Contact AAWU Internet Services Site last modified: April, 17th 2012